首页
METAR-TAF:

METAR-TAF

机场 :

威士拿, 不列颠哥伦比亚, 加拿大

纬度: 50-08N, 经度: 122-57W, 海拔: 658米

当前天气观测

该预报发布于25分钟前的17:00 UTC
风速2节,风向
温度 16°C
湿度 68%
气压 1021 hPa
能見度: 24.1公里
少量云层高于900英尺
散云层高于2800英尺
多云层高于3500英尺

METAR: CWAE 081700Z 18002KT 15SM FEW009 SCT028 BKN035 16/10 A3016 RMK ST2CU2CU3 WND ESTD SLP213 DENSITY ALT 2600FT

时间: 10:25 (17:25 UTC)


TAF: 丢失

超过4000个机场的气象观测和天气预报(METAR&TAF报告)。

可查询的气象台以黄色和红色小点在地图上表示。

将鼠标移到小点上方,可查看气象台名称。

然后点击查看天气观测和预报。

如需切换地图:点击带黑十字的绿色按钮放大地图;点击带横线的绿色按钮缩小地图;或者点击绿色箭头查看邻近地区的地图。


METAR-TAF: